createdAt,value
2023-05-21T00:02:22.417Z,16.89
2023-05-21T00:04:51.392Z,17.01
2023-05-21T00:07:20.477Z,16.96
2023-05-21T00:09:48.595Z,16.92
2023-05-21T00:12:16.555Z,16.99
2023-05-21T00:14:46.062Z,16.85
2023-05-21T00:17:13.998Z,16.83
2023-05-21T00:19:41.936Z,16.96
2023-05-21T00:22:09.876Z,16.82
2023-05-21T00:24:37.738Z,16.92
2023-05-21T00:27:05.948Z,16.76
2023-05-21T00:29:33.851Z,16.75
2023-05-21T00:32:03.177Z,16.69
2023-05-21T00:34:31.139Z,16.65
2023-05-21T00:36:58.996Z,16.59
2023-05-21T00:39:26.878Z,16.57
2023-05-21T00:41:56.863Z,16.51
2023-05-21T00:44:25.308Z,16.45
2023-05-21T00:46:55.078Z,16.48
2023-05-21T00:49:25.928Z,16.49
2023-05-21T00:51:54.859Z,16.73
2023-05-21T00:54:24.216Z,16.60
2023-05-21T00:56:53.096Z,16.72
2023-05-21T00:59:21.026Z,16.65
2023-05-21T01:01:56.241Z,16.59
2023-05-21T01:04:25.752Z,16.62
2023-05-21T01:06:56.228Z,16.68
2023-05-21T01:09:24.308Z,16.94
2023-05-21T01:11:53.674Z,16.73
2023-05-21T01:14:23.920Z,16.65
2023-05-21T01:16:53.794Z,17.12
2023-05-21T01:19:26.232Z,16.76
2023-05-21T01:22:06.018Z,16.79
2023-05-21T01:24:35.628Z,16.86
2023-05-21T01:27:07.794Z,16.56
2023-05-21T01:29:35.869Z,16.50
2023-05-21T01:32:16.945Z,16.69
2023-05-21T01:34:56.841Z,16.65
2023-05-21T01:37:32.773Z,16.63
2023-05-21T01:40:12.671Z,16.51
2023-05-21T01:42:45.866Z,16.54
2023-05-21T01:45:16.880Z,16.73
2023-05-21T01:47:50.377Z,16.51
2023-05-21T01:50:23.255Z,16.40
2023-05-21T01:52:52.865Z,16.49
2023-05-21T01:55:24.821Z,16.50
2023-05-21T01:57:53.823Z,16.51
2023-05-21T02:00:23.715Z,16.41
2023-05-21T02:02:51.718Z,16.30
2023-05-21T02:05:19.766Z,16.37
2023-05-21T02:07:49.821Z,16.19
2023-05-21T02:10:17.753Z,16.31
2023-05-21T02:12:47.581Z,16.19
2023-05-21T02:15:17.862Z,16.14
2023-05-21T02:17:46.530Z,16.41
2023-05-21T02:20:15.594Z,16.45
2023-05-21T02:22:45.848Z,16.52
2023-05-21T02:25:15.854Z,16.59
2023-05-21T02:27:46.864Z,16.63
2023-05-21T02:30:16.875Z,16.36
2023-05-21T02:32:45.546Z,16.51
2023-05-21T02:35:14.519Z,16.30
2023-05-21T02:37:44.110Z,16.30
2023-05-21T02:40:13.528Z,16.22
2023-05-21T02:42:42.226Z,16.57
2023-05-21T02:45:13.566Z,16.14
2023-05-21T02:47:41.738Z,15.76
2023-05-21T02:50:10.573Z,15.54
2023-05-21T02:52:38.401Z,15.45
2023-05-21T02:55:07.799Z,15.54
2023-05-21T02:57:35.735Z,15.40
2023-05-21T03:00:05.956Z,15.23
2023-05-21T03:02:35.439Z,15.28
2023-05-21T03:05:03.521Z,15.25
2023-05-21T03:07:31.627Z,15.09
2023-05-21T03:09:59.456Z,15.01
2023-05-21T03:12:27.385Z,15.07
2023-05-21T03:14:56.378Z,14.88
2023-05-21T03:17:24.377Z,14.88
2023-05-21T03:19:54.770Z,14.84
2023-05-21T03:22:22.694Z,15.03
2023-05-21T03:24:50.584Z,14.85
2023-05-21T03:27:19.712Z,14.97
2023-05-21T03:29:47.579Z,14.83
2023-05-21T03:32:15.709Z,14.93
2023-05-21T03:34:44.664Z,14.96
2023-05-21T03:37:13.934Z,14.77
2023-05-21T03:39:41.867Z,14.73
2023-05-21T03:42:09.643Z,14.73
2023-05-21T03:44:37.497Z,14.85
2023-05-21T03:47:05.683Z,14.95
2023-05-21T03:49:33.496Z,15.03
2023-05-21T03:52:01.416Z,15.04
2023-05-21T03:54:31.347Z,15.00
2023-05-21T03:56:59.937Z,15.00
2023-05-21T03:59:27.853Z,15.04
2023-05-21T04:01:55.934Z,14.97
2023-05-21T04:04:24.103Z,15.27
2023-05-21T04:06:54.726Z,15.11
2023-05-21T04:09:22.647Z,15.07
2023-05-21T04:11:51.913Z,15.12
2023-05-21T04:14:19.797Z,15.15
2023-05-21T04:16:49.194Z,15.20
2023-05-21T04:19:17.699Z,15.20
2023-05-21T04:21:46.168Z,15.21
2023-05-21T04:24:14.126Z,15.39
2023-05-21T04:26:42.433Z,15.36
2023-05-21T04:29:11.693Z,15.45
2023-05-21T04:31:39.712Z,15.35
2023-05-21T04:34:07.641Z,15.34
2023-05-21T04:36:35.439Z,15.56
2023-05-21T04:39:06.273Z,15.64
2023-05-21T04:41:34.610Z,15.52
2023-05-21T04:44:02.687Z,15.53
2023-05-21T04:46:34.836Z,15.50
2023-05-21T04:49:03.889Z,15.68
2023-05-21T04:51:32.632Z,15.63
2023-05-21T04:54:00.779Z,15.72
2023-05-21T04:56:29.612Z,15.77
2023-05-21T04:58:59.834Z,15.77
2023-05-21T05:01:29.352Z,15.77
2023-05-21T05:03:58.790Z,15.74
2023-05-21T05:06:27.492Z,15.95
2023-05-21T05:08:56.411Z,16.25
2023-05-21T05:11:24.807Z,15.97
2023-05-21T05:13:53.490Z,16.08
2023-05-21T05:16:25.474Z,16.03
2023-05-21T05:18:53.976Z,15.94
2023-05-21T05:21:24.522Z,16.14
2023-05-21T05:23:52.429Z,16.05
2023-05-21T05:26:21.451Z,16.06
2023-05-21T05:28:49.338Z,15.96
2023-05-21T05:31:18.616Z,16.13
2023-05-21T05:33:46.772Z,16.14
2023-05-21T05:36:14.613Z,16.15
2023-05-21T05:38:44.031Z,16.44
2023-05-21T05:41:11.957Z,16.55
2023-05-21T05:43:39.764Z,16.36
2023-05-21T05:46:07.763Z,16.29
2023-05-21T05:48:35.768Z,16.27
2023-05-21T05:51:03.679Z,16.30
2023-05-21T05:53:32.388Z,16.55
2023-05-21T05:56:01.625Z,16.19
2023-05-21T05:58:31.118Z,16.34
2023-05-21T06:00:58.953Z,16.38
2023-05-21T06:03:28.130Z,16.49
2023-05-21T06:05:56.312Z,16.45
2023-05-21T06:08:24.730Z,16.57
2023-05-21T06:10:52.597Z,16.39
2023-05-21T06:13:25.398Z,16.24
2023-05-21T06:15:54.649Z,16.47
2023-05-21T06:18:24.176Z,16.45
2023-05-21T06:20:52.062Z,16.50
2023-05-21T06:23:20.265Z,16.35
2023-05-21T06:25:48.531Z,16.38
2023-05-21T06:28:17.754Z,16.63
2023-05-21T06:30:47.267Z,16.42
2023-05-21T06:33:15.262Z,16.52
2023-05-21T06:35:43.227Z,16.74
2023-05-21T06:38:11.251Z,17.00
2023-05-21T06:40:48.492Z,17.01
2023-05-21T06:43:16.531Z,17.07
2023-05-21T06:45:44.366Z,17.16
2023-05-21T06:48:15.930Z,17.26
2023-05-21T06:50:44.413Z,17.59
2023-05-21T06:53:18.677Z,17.45
2023-05-21T06:55:57.788Z,17.48
2023-05-21T06:58:25.929Z,17.62
2023-05-21T07:00:53.998Z,17.89
2023-05-21T07:03:23.351Z,18.10
2023-05-21T07:05:51.265Z,18.16
2023-05-21T07:08:20.887Z,18.41
2023-05-21T07:10:49.927Z,18.61
2023-05-21T07:13:17.863Z,18.96
2023-05-21T07:15:45.713Z,18.98
2023-05-21T07:18:13.682Z,19.18
2023-05-21T07:20:42.955Z,19.49
2023-05-21T07:23:11.020Z,19.28
2023-05-21T07:25:39.291Z,19.35
2023-05-21T07:28:07.210Z,19.71
2023-05-21T07:30:35.048Z,19.91
2023-05-21T07:33:02.921Z,20.13
2023-05-21T07:35:31.123Z,19.92
2023-05-21T07:38:00.623Z,19.94
2023-05-21T07:40:28.410Z,20.18
2023-05-21T07:42:56.430Z,20.43
2023-05-21T07:45:24.277Z,20.50
2023-05-21T07:47:52.157Z,20.15
2023-05-21T07:50:22.360Z,19.86
2023-05-21T07:52:50.338Z,20.63
2023-05-21T07:55:19.624Z,20.34
2023-05-21T07:57:47.809Z,20.24
2023-05-21T08:00:16.794Z,19.87
2023-05-21T08:02:44.965Z,19.77
2023-05-21T08:05:16.342Z,19.87
2023-05-21T08:07:44.333Z,19.83
2023-05-21T08:10:12.345Z,19.84
2023-05-21T08:12:41.983Z,19.64
2023-05-21T08:15:10.273Z,19.80
2023-05-21T08:17:38.588Z,20.49
2023-05-21T08:20:08.468Z,20.63
2023-05-21T08:22:36.320Z,20.45
2023-05-21T08:25:07.192Z,20.55
2023-05-21T08:27:35.172Z,20.67
2023-05-21T08:30:06.825Z,20.53
2023-05-21T08:32:36.696Z,20.40
2023-05-21T08:35:05.027Z,20.35
2023-05-21T08:37:33.682Z,20.54
2023-05-21T08:40:01.614Z,20.91
2023-05-21T08:42:43.706Z,20.75
2023-05-21T08:45:14.944Z,20.85
2023-05-21T08:47:44.988Z,21.25
2023-05-21T08:50:15.572Z,21.06
2023-05-21T08:52:45.091Z,21.15
2023-05-21T08:55:13.626Z,21.61
2023-05-21T08:57:47.820Z,21.79
2023-05-21T09:00:21.390Z,22.28
2023-05-21T09:03:07.816Z,22.49
2023-05-21T09:05:36.624Z,22.70
2023-05-21T09:08:13.118Z,22.80
2023-05-21T09:10:49.221Z,23.11
2023-05-21T09:13:19.438Z,23.57
2023-05-21T09:15:51.460Z,24.18
2023-05-21T09:18:19.732Z,23.61
2023-05-21T09:20:47.596Z,23.41
2023-05-21T09:23:19.237Z,24.23
2023-05-21T09:25:48.843Z,24.64
2023-05-21T09:28:18.761Z,24.83
2023-05-21T09:30:56.921Z,25.15
2023-05-21T09:33:58.535Z,25.09
2023-05-21T09:36:26.582Z,24.71
2023-05-21T09:38:59.795Z,24.51
2023-05-21T09:41:33.728Z,24.88
2023-05-21T09:44:05.065Z,25.20
2023-05-21T09:46:41.003Z,24.99
2023-05-21T09:49:24.050Z,25.29
2023-05-21T09:51:51.924Z,25.69
2023-05-21T09:54:19.836Z,25.50
2023-05-21T09:56:47.874Z,25.20
2023-05-21T09:59:15.740Z,25.43
2023-05-21T10:01:45.960Z,25.99
2023-05-21T10:04:14.881Z,25.75
2023-05-21T10:06:45.238Z,25.81
2023-05-21T10:09:15.812Z,25.57
2023-05-21T10:11:46.527Z,25.76
2023-05-21T10:14:20.781Z,25.42
2023-05-21T10:16:51.351Z,25.76
2023-05-21T10:19:21.683Z,25.73
2023-05-21T10:21:52.586Z,26.24
2023-05-21T10:24:21.921Z,26.39
2023-05-21T10:26:50.950Z,26.59
2023-05-21T10:29:21.939Z,26.06
2023-05-21T10:31:53.756Z,25.65
2023-05-21T10:34:24.608Z,26.02
2023-05-21T10:36:57.163Z,24.29
2023-05-21T10:39:26.581Z,25.45
2023-05-21T10:42:18.362Z,25.49
2023-05-21T10:45:09.423Z,25.66
2023-05-21T10:48:06.506Z,25.77
2023-05-21T10:51:03.910Z,25.95
2023-05-21T10:53:57.373Z,25.77
2023-05-21T10:56:34.299Z,25.77
2023-05-21T10:59:21.720Z,25.84
2023-05-21T11:01:52.907Z,25.79
2023-05-21T11:04:27.662Z,26.37
2023-05-21T11:06:56.353Z,25.97
2023-05-21T11:09:24.438Z,25.95
2023-05-21T11:11:54.662Z,26.59
2023-05-21T11:14:33.080Z,27.25
2023-05-21T11:17:04.764Z,26.58
2023-05-21T11:19:40.538Z,26.74
2023-05-21T11:22:09.878Z,26.77
2023-05-21T11:24:42.606Z,27.11
2023-05-21T11:27:10.733Z,26.41
2023-05-21T11:29:45.289Z,27.04
2023-05-21T11:32:21.968Z,25.16
2023-05-21T11:34:51.869Z,26.65
2023-05-21T11:37:33.134Z,27.11
2023-05-21T11:40:29.439Z,27.22
2023-05-21T11:42:58.365Z,27.16
2023-05-21T11:45:31.872Z,26.82
2023-05-21T11:48:01.125Z,26.94
2023-05-21T11:50:33.754Z,27.02
2023-05-21T11:53:01.922Z,27.58
2023-05-21T11:55:30.287Z,26.75
2023-05-21T11:58:00.793Z,26.55
2023-05-21T12:00:28.653Z,26.61
2023-05-21T12:02:57.246Z,26.48
2023-05-21T12:05:27.364Z,26.75
2023-05-21T12:07:56.789Z,26.65
2023-05-21T12:10:31.116Z,26.97
2023-05-21T12:12:59.261Z,26.91
2023-05-21T12:15:28.071Z,27.54
2023-05-21T12:17:57.902Z,25.68
2023-05-21T12:20:28.615Z,27.30
2023-05-21T12:23:00.540Z,27.40
2023-05-21T12:25:30.461Z,27.55
2023-05-21T12:28:01.332Z,27.81
2023-05-21T12:30:31.179Z,28.18
2023-05-21T12:33:01.985Z,28.50
2023-05-21T12:35:32.108Z,28.06
2023-05-21T12:38:04.029Z,28.10
2023-05-21T12:40:39.944Z,28.20
2023-05-21T12:43:08.926Z,28.07
2023-05-21T12:45:39.371Z,28.15
2023-05-21T12:48:08.377Z,27.88
2023-05-21T12:50:41.662Z,28.44
2023-05-21T12:53:12.657Z,28.10
2023-05-21T12:55:41.120Z,28.76
2023-05-21T12:58:09.434Z,28.45
2023-05-21T13:00:38.354Z,27.17
2023-05-21T13:03:07.401Z,27.59
2023-05-21T13:05:36.139Z,27.80
2023-05-21T13:09:23.233Z,28.25
2023-05-21T13:11:52.385Z,28.16
2023-05-21T13:14:21.117Z,27.89
2023-05-21T13:16:49.200Z,27.73
2023-05-21T13:19:17.790Z,27.61
2023-05-21T13:21:45.701Z,27.32
2023-05-21T13:24:13.615Z,27.55
2023-05-21T13:26:41.752Z,27.18
2023-05-21T13:29:15.509Z,26.87
2023-05-21T13:31:43.789Z,26.15
2023-05-21T13:34:12.905Z,26.98
2023-05-21T13:36:41.899Z,26.46
2023-05-21T13:39:10.199Z,26.78
2023-05-21T13:41:38.195Z,26.55
2023-05-21T13:44:06.912Z,26.09
2023-05-21T13:46:39.538Z,26.22
2023-05-21T13:49:10.544Z,26.28
2023-05-21T13:51:39.481Z,26.39
2023-05-21T13:54:09.764Z,26.37
2023-05-21T13:56:37.620Z,26.29
2023-05-21T13:59:05.795Z,26.22
2023-05-21T14:01:33.818Z,26.55
2023-05-21T14:04:07.124Z,26.59
2023-05-21T14:06:36.098Z,26.39
2023-05-21T14:09:06.210Z,26.44
2023-05-21T14:11:35.027Z,25.86
2023-05-21T14:14:03.915Z,25.94
2023-05-21T14:16:33.040Z,26.07
2023-05-21T14:19:01.093Z,26.00
2023-05-21T14:21:31.637Z,26.57
2023-05-21T14:23:59.546Z,26.16
2023-05-21T14:26:27.727Z,26.02
2023-05-21T14:28:55.772Z,26.60
2023-05-21T14:31:25.069Z,26.47
2023-05-21T14:33:53.001Z,26.51
2023-05-21T14:36:21.852Z,26.41
2023-05-21T14:38:51.091Z,26.46
2023-05-21T14:41:20.196Z,26.62
2023-05-21T14:43:48.604Z,26.68
2023-05-21T14:46:16.682Z,26.77
2023-05-21T14:48:46.626Z,27.03
2023-05-21T14:51:14.778Z,26.86
2023-05-21T14:53:42.674Z,26.96
2023-05-21T14:56:11.929Z,26.94
2023-05-21T14:58:39.913Z,27.00
2023-05-21T15:01:07.925Z,26.51
2023-05-21T15:03:35.905Z,26.64
2023-05-21T15:06:03.973Z,26.28
2023-05-21T15:08:32.090Z,26.98
2023-05-21T15:10:59.925Z,27.14
2023-05-21T15:13:29.366Z,26.76
2023-05-21T15:15:57.594Z,26.62
2023-05-21T15:18:25.672Z,26.91
2023-05-21T15:20:53.636Z,26.54
2023-05-21T15:23:21.791Z,26.77
2023-05-21T15:25:49.714Z,26.69
2023-05-21T15:28:17.790Z,26.51
2023-05-21T15:30:47.161Z,25.80
2023-05-21T15:33:15.146Z,26.40
2023-05-21T15:35:43.283Z,26.51
2023-05-21T15:38:11.442Z,26.35
2023-05-21T15:40:42.479Z,26.66
2023-05-21T15:43:10.363Z,26.53
2023-05-21T15:45:39.154Z,26.73
2023-05-21T15:48:08.977Z,26.45
2023-05-21T15:50:38.119Z,26.21
2023-05-21T15:53:06.251Z,26.34
2023-05-21T15:55:34.241Z,26.34
2023-05-21T15:58:03.828Z,26.37
2023-05-21T16:00:31.760Z,26.18
2023-05-21T16:02:59.726Z,25.97
2023-05-21T16:05:29.426Z,25.99
2023-05-21T16:07:57.253Z,25.83
2023-05-21T16:10:25.151Z,25.83
2023-05-21T16:12:52.996Z,25.49
2023-05-21T16:15:21.484Z,25.35
2023-05-21T16:17:49.491Z,25.74
2023-05-21T16:20:18.777Z,25.97
2023-05-21T16:22:47.752Z,25.94
2023-05-21T16:25:15.828Z,25.82
2023-05-21T16:27:43.667Z,25.88
2023-05-21T16:30:14.247Z,26.17
2023-05-21T16:32:42.287Z,25.96
2023-05-21T16:35:10.293Z,25.76
2023-05-21T16:37:38.447Z,25.61
2023-05-21T16:40:09.714Z,26.05
2023-05-21T16:42:37.614Z,25.84
2023-05-21T16:45:06.497Z,25.62
2023-05-21T16:47:34.387Z,25.44
2023-05-21T16:50:02.851Z,25.89
2023-05-21T16:52:30.677Z,25.93
2023-05-21T16:54:58.549Z,26.39
2023-05-21T16:57:27.764Z,25.84
2023-05-21T16:59:55.575Z,25.97
2023-05-21T17:02:24.250Z,25.67
2023-05-21T17:04:52.268Z,26.07
2023-05-21T17:07:20.822Z,26.05
2023-05-21T17:09:48.767Z,26.07
2023-05-21T17:12:16.741Z,26.41
2023-05-21T17:14:45.936Z,25.91
2023-05-21T17:17:13.642Z,25.90
2023-05-21T17:19:43.187Z,25.89
2023-05-21T17:22:12.870Z,25.78
2023-05-21T17:24:41.449Z,25.70
2023-05-21T17:27:09.528Z,25.47
2023-05-21T17:29:37.780Z,25.13
2023-05-21T17:32:08.129Z,25.49
2023-05-21T17:34:37.146Z,25.82
2023-05-21T17:37:05.914Z,25.03
2023-05-21T17:39:33.750Z,25.36
2023-05-21T17:42:02.020Z,25.44
2023-05-21T17:44:29.865Z,25.36
2023-05-21T17:46:57.731Z,25.68
2023-05-21T17:49:27.017Z,25.56
2023-05-21T17:51:54.738Z,25.67
2023-05-21T17:54:22.603Z,24.86
2023-05-21T17:56:50.564Z,24.96
2023-05-21T17:59:18.540Z,25.45
2023-05-21T18:01:47.137Z,24.77
2023-05-21T18:04:15.085Z,24.89
2023-05-21T18:06:44.485Z,24.86
2023-05-21T18:09:14.340Z,24.65
2023-05-21T18:11:44.570Z,25.19
2023-05-21T18:14:12.629Z,25.31
2023-05-21T18:16:40.986Z,25.24
2023-05-21T18:19:08.985Z,24.96
2023-05-21T18:21:37.218Z,24.99
2023-05-21T18:24:07.958Z,25.03
2023-05-21T18:26:35.748Z,25.06
2023-05-21T18:29:03.957Z,25.26
2023-05-21T18:31:32.029Z,25.37
2023-05-21T18:33:59.914Z,25.26
2023-05-21T18:36:29.172Z,25.17
2023-05-21T18:38:57.619Z,24.85
2023-05-21T18:41:27.051Z,24.95
2023-05-21T18:43:54.907Z,25.22
2023-05-21T18:46:22.732Z,25.32
2023-05-21T18:48:51.087Z,25.46
2023-05-21T18:51:19.249Z,25.60
2023-05-21T18:53:47.180Z,25.82
2023-05-21T18:56:15.019Z,25.94
2023-05-21T18:58:44.179Z,26.23
2023-05-21T19:01:12.456Z,26.31
2023-05-21T19:03:41.352Z,26.30
2023-05-21T19:06:11.299Z,26.25
2023-05-21T19:08:40.445Z,26.22
2023-05-21T19:11:08.394Z,26.05
2023-05-21T19:13:36.270Z,25.97
2023-05-21T19:16:10.974Z,25.91
2023-05-21T19:18:42.044Z,25.97
2023-05-21T19:21:11.517Z,25.81
2023-05-21T19:23:51.944Z,25.75
2023-05-21T19:26:21.296Z,25.75
2023-05-21T19:28:52.892Z,25.79
2023-05-21T19:31:23.745Z,25.74
2023-05-21T19:33:51.820Z,25.63
2023-05-21T19:36:20.156Z,25.21
2023-05-21T19:38:49.177Z,24.86
2023-05-21T19:41:18.050Z,24.96
2023-05-21T19:43:46.732Z,24.80
2023-05-21T19:46:18.123Z,24.52
2023-05-21T19:48:49.856Z,24.11
2023-05-21T19:51:19.690Z,23.48
2023-05-21T19:53:47.530Z,23.35
2023-05-21T19:56:15.770Z,23.42
2023-05-21T19:58:46.996Z,23.22
2023-05-21T20:01:15.324Z,22.96
2023-05-21T20:03:45.357Z,22.72
2023-05-21T20:06:16.907Z,22.71
2023-05-21T20:08:44.776Z,22.46
2023-05-21T20:11:12.806Z,22.43
2023-05-21T20:13:42.056Z,22.31
2023-05-21T20:16:12.521Z,22.24
2023-05-21T20:18:41.624Z,22.34
2023-05-21T20:21:10.661Z,22.64
2023-05-21T20:23:39.842Z,22.90
2023-05-21T20:26:08.340Z,23.17
2023-05-21T20:28:37.451Z,23.18
2023-05-21T20:31:06.994Z,22.88
2023-05-21T20:33:39.369Z,23.37
2023-05-21T20:36:08.844Z,23.35
2023-05-21T20:38:38.111Z,23.08
2023-05-21T20:41:07.392Z,23.08
2023-05-21T20:43:37.227Z,22.86
2023-05-21T20:46:05.655Z,22.83
2023-05-21T20:48:33.779Z,23.23
2023-05-21T20:51:02.208Z,22.95
2023-05-21T20:53:30.126Z,22.74
2023-05-21T20:55:58.035Z,22.61
2023-05-21T20:58:27.360Z,22.14
2023-05-21T21:00:55.335Z,22.11
2023-05-21T21:03:23.595Z,22.25
2023-05-21T21:05:52.795Z,22.61
2023-05-21T21:08:21.097Z,22.45
2023-05-21T21:10:48.888Z,22.54
2023-05-21T21:13:16.813Z,22.47
2023-05-21T21:15:46.269Z,22.43
2023-05-21T21:18:14.360Z,21.95
2023-05-21T21:20:42.672Z,22.01
2023-05-21T21:23:10.531Z,22.17
2023-05-21T21:25:38.376Z,22.23
2023-05-21T21:28:06.256Z,22.20
2023-05-21T21:30:34.146Z,22.28
2023-05-21T21:33:03.775Z,22.02
2023-05-21T21:35:31.769Z,21.69
2023-05-21T21:37:59.604Z,21.54
2023-05-21T21:40:28.384Z,21.27
2023-05-21T21:42:56.735Z,21.49
2023-05-21T21:45:24.658Z,21.56
2023-05-21T21:47:52.592Z,21.87
2023-05-21T21:50:21.942Z,21.80
2023-05-21T21:52:49.920Z,21.73
2023-05-21T21:55:19.077Z,21.61
2023-05-21T21:57:46.890Z,20.98
2023-05-21T22:00:18.047Z,21.31
2023-05-21T22:02:47.493Z,21.42
2023-05-21T22:05:15.634Z,21.72
2023-05-21T22:07:47.068Z,21.64
2023-05-21T22:10:15.986Z,21.66
2023-05-21T22:12:45.959Z,21.74
2023-05-21T22:15:23.962Z,21.95
2023-05-21T22:17:53.454Z,21.81
2023-05-21T22:20:22.119Z,21.52
2023-05-21T22:22:53.065Z,21.98
2023-05-21T22:25:22.871Z,21.79
2023-05-21T22:27:51.638Z,21.81
2023-05-21T22:30:20.618Z,21.81
2023-05-21T22:32:49.436Z,22.06
2023-05-21T22:35:17.588Z,22.14
2023-05-21T22:37:45.510Z,21.74
2023-05-21T22:40:15.086Z,21.99
2023-05-21T22:42:43.045Z,21.81
2023-05-21T22:45:12.141Z,22.11
2023-05-21T22:47:40.443Z,21.94
2023-05-21T22:50:11.081Z,21.36
2023-05-21T22:52:39.168Z,21.34
2023-05-21T22:55:11.124Z,21.47
2023-05-21T22:57:40.593Z,21.39
2023-05-21T23:00:10.853Z,21.70
2023-05-21T23:02:38.966Z,21.90
2023-05-21T23:05:07.192Z,21.62
2023-05-21T23:07:35.041Z,22.19
2023-05-21T23:10:02.903Z,21.90
2023-05-21T23:12:30.844Z,21.64
2023-05-21T23:15:00.071Z,22.02
2023-05-21T23:17:27.932Z,22.04
2023-05-21T23:19:56.228Z,22.30
2023-05-21T23:22:24.490Z,22.13
2023-05-21T23:24:53.971Z,22.38
2023-05-21T23:27:21.782Z,22.00
2023-05-21T23:29:49.755Z,22.29
2023-05-21T23:32:19.278Z,22.15
2023-05-21T23:34:48.678Z,22.40
2023-05-21T23:37:16.593Z,22.40
2023-05-21T23:39:48.207Z,22.04
2023-05-21T23:42:16.852Z,22.21
2023-05-21T23:44:45.116Z,22.18
2023-05-21T23:47:12.973Z,22.29
2023-05-21T23:49:42.139Z,22.55
2023-05-21T23:52:10.015Z,22.60
2023-05-21T23:54:38.567Z,22.39
2023-05-21T23:57:07.189Z,22.46
2023-05-21T23:59:35.108Z,22.63
